Station: Dwellingup  

  Atmospheric Gas Attenuation - ITU Rec 676-11   ----------------- dB/100km -----------------
Date Time Temp RH % AH g/m3 Dew Point Wind Direction Speed kph Gust kph Barometer mB Rainfall Since 9am 24GHz 47GHz 76GHz 122GHz 134GHz 241GHz
08/05 09:30 15.6 71 9.44 10.4 24 39 1031.2 0 21.3 27.4 43.1 113.0 108.7 374.6
08/05 09:20 14.9 72 9.18 9.9 22 28 1031.4 0 20.7 27.2 42.4 111.1 106.2 365.8
08/05 09:10 14.7 74 9.32 10.1 22 30 1031.4 0 21.1 27.5 43.1 113.0 108.4 373.3
08/05 09:00 14.2 76 9.28 10 20 32 1031.3 0 21.0 27.6 43.2 113.2 108.5 373.8
08/05 08:50 13.8 77 9.17 9.8 22 35 1031.5 0 20.8 27.5 43.0 112.6 107.6 370.5
08/05 08:40 13.4 79 9.18 9.8 17 20 1031.4 0 20.8 27.7 43.2 113.3 108.3 372.8
08/05 08:30 13 81 9.19 9.8 19 30 1031.3 0 20.9 27.8 43.5 114.0 109.0 375.2
08/05 08:20 12.2 86 9.28 9.9 20 32 1031.4 0 21.1 28.2 44.3 116.2 111.4 383.5
08/05 08:10 11.4 88 9.03 9.5 20 26 1031.4 0 20.6 28.0 43.7 114.5 109.0 375.1
08/05 08:00 10.8 92 9.1 9.6 17 28 1031.3 0 20.8 28.4 44.3 116.2 110.9 381.5
08/05 07:50 10 93 8.74 8.9 19 26 1031.3 0 20.1 28.0 43.2 113.2 106.9 367.5
08/05 07:40 9.4 93 8.41 8.3 20 26 1031.2 0 19.4 27.6 42.1 110.3 103.0 353.9
08/05 07:30 9.3 93 8.36 8.2 17 22 1031 0 19.3 27.5 41.9 109.9 102.5 351.9
08/05 07:20 9.3 93 8.36 8.2 19 26 1030.9 0 19.3 27.5 41.9 109.8 102.4 351.8
08/05 07:10 9.2 93 8.31 8.1 17 20 1030.8 0 19.2 27.5 41.8 109.4 101.9 349.8
08/05 07:00 9.1 93 8.25 8 20 30 1030.7 0 19.0 27.4 41.6 108.8 101.1 347.3
08/05 06:50 8.7 93 8.05 7.6 17 24 1030.6 0 18.6 27.2 40.9 107.1 98.8 339.1
08/05 06:40 8.6 93 7.99 7.5 24 32 1030.6 0 18.5 27.1 40.7 106.6 98.1 336.6
08/05 06:30 8.4 92 7.81 7.2 22 32 1030.6 0 18.1 26.9 40.0 104.8 95.9 328.7
08/05 06:20 8.4 91 7.72 7 22 32 1030.6 0 17.9 26.7 39.7 103.8 94.6 324.3
08/05 06:10 8.4 91 7.72 7 22 32 1030.6 0 17.9 26.7 39.7 103.8 94.6 324.3
08/05 06:00 8.2 90 7.54 6.7 20 30 1030.5 0 17.6 26.4 39.0 102.0 92.3 316.3
08/05 05:50 8.4 89 7.55 6.7 22 28 1030.6 0 17.6 26.4 38.9 101.9 92.2 316.0
08/05 05:40 8.5 88 7.52 6.6 22 26 1030.6 0 17.5 26.3 38.8 101.4 91.7 314.1
08/05 05:30 8.8 87 7.58 6.8 22 32 1030.6 0 17.6 26.3 38.9 101.7 92.2 315.8
08/05 05:20 9 87 7.67 7 22 28 1030.5 0 17.8 26.4 39.2 102.4 93.2 319.3
08/05 05:10 9.1 87 7.72 7.1 22 28 1030.5 0 17.9 26.5 39.3 102.8 93.7 321.3
08/05 05:00 9.1 87 7.72 7.1 22 32 1030.4 0 17.9 26.5 39.3 102.8 93.7 321.3
08/05 04:50 9 87 7.67 7 26 32 1030.3 0 17.8 26.4 39.1 102.4 93.2 319.3
08/05 04:40 9.1 85 7.54 6.7 22 30 1030.3 0 17.5 26.2 38.5 100.8 91.3 312.6
08/05 04:30 9.4 84 7.6 6.8 24 32 1030.2 0 17.6 26.2 38.6 101.1 91.7 314.3
08/05 04:20 9.4 84 7.6 6.8 24 30 1030.3 0 17.6 26.2 38.7 101.1 91.7 314.3
08/05 04:10 9.5 84 7.65 6.9 22 30 1030.2 0 17.7 26.2 38.8 101.5 92.3 316.3
08/05 04:00 9.6 82 7.51 6.7 20 30 1030 0 17.4 26.0 38.2 99.8 90.2 309.1
08/05 03:50 9.8 82 7.61 6.9 20 26 1030.1 0 17.6 26.1 38.5 100.7 91.4 313.1
08/05 03:40 10 81 7.61 6.9 22 28 1030.1 0 17.6 26.0 38.4 100.4 91.1 312.3
08/05 03:30 10.1 80 7.57 6.8 20 32 1030 0 17.5 25.9 38.2 99.8 90.5 310.0
08/05 03:20 10.3 79 7.57 6.8 26 32 1030 0 17.5 25.9 38.1 99.6 90.2 309.2
08/05 03:10 10.6 78 7.61 6.9 26 33 1030 0 17.6 25.8 38.1 99.6 90.4 309.9
08/05 03:00 10.5 78 7.57 6.8 24 35 1029.9 0 17.5 25.8 38.0 99.3 90.0 308.4
08/05 02:50 10.4 79 7.62 6.9 26 33 1030 0 17.6 25.9 38.2 100.0 90.8 311.2
08/05 02:40 10.3 79 7.57 6.8 24 35 1030 0 17.5 25.9 38.1 99.6 90.2 309.2
08/05 02:30 10.5 78 7.57 6.8 26 37 1029.9 0 17.5 25.8 38.0 99.3 90.0 308.4
08/05 02:20 10.6 78 7.61 6.9 28 37 1030.1 0 17.6 25.8 38.1 99.6 90.4 309.9
08/05 02:10 10.9 76 7.56 6.8 26 35 1030.1 0 17.5 25.7 37.8 98.7 89.4 306.4
08/05 02:00 11.1 75 7.56 6.8 24 35 1030.1 0 17.5 25.6 37.7 98.5 89.2 305.6
08/05 01:50 11.4 74 7.6 6.9 20 30 1030.2 0 17.6 25.6 37.7 98.5 89.4 306.4
08/05 01:40 11.7 72 7.53 6.8 20 26 1030.1 0 17.4 25.4 37.3 97.4 88.1 301.9
08/05 01:30 11.8 72 7.58 6.9 20 33 1030.1 0 17.5 25.5 37.4 97.8 88.6 303.9
08/05 01:20 12 70 7.46 6.7 20 28 1030.2 0 17.2 25.2 36.8 96.3 86.8 297.6
08/05 01:10 12.1 70 7.51 6.8 17 30 1030.1 0 17.3 25.3 37.0 96.7 87.4 299.5
08/05 01:00 12.5 69 7.59 7 24 39 1030 0 17.5 25.3 37.1 97.0 88.0 301.6
08/05 00:50 12.6 68 7.52 6.9 20 26 1030.1 0 17.3 25.1 36.8 96.2 87.0 298.1
08/05 00:40 13 66 7.49 6.8 30 39 1030.2 0 17.2 25.0 36.5 95.4 86.1 295.2
08/05 00:30 13.2 65 7.46 6.8 20 33 1030 0 17.2 24.9 36.3 94.8 85.5 293.1
08/05 00:20 13.2 65 7.46 6.8 22 37 1029.9 0 17.2 24.9 36.3 94.8 85.5 293.0
08/05 00:10 13.3 65 7.51 6.9 32 44 1029.8 0 17.3 24.9 36.4 95.2 86.0 294.9
08/05 00:00 13.5 64 7.49 6.8 24 41 1029.8 0 17.2 24.8 36.3 94.8 85.6 293.3
07/05 23:50 13.5 64 7.49 6.8 28 37 1029.8 0 17.2 24.8 36.3 94.8 85.6 293.3
07/05 23:40 13.6 63 7.41 6.7 24 32 1029.9 0 17.0 24.7 35.9 93.8 84.4 289.3
07/05 23:30 13.5 64 7.49 6.8 24 41 1029.7 0 17.2 24.8 36.3 94.8 85.5 293.2
07/05 23:20 13.8 62 7.39 6.7 26 37 1029.9 0 17.0 24.6 35.7 93.4 84.0 287.7
07/05 23:10 13.9 62 7.43 6.7 32 41 1029.9 0 17.1 24.6 35.9 93.7 84.4 289.1
07/05 23:00 13.9 61 7.31 6.5 28 43 1029.8 0 16.8 24.4 35.4 92.4 82.8 283.7
07/05 22:50 14.1 60 7.28 6.5 26 35 1029.9 0 16.8 24.3 35.2 91.9 82.2 281.7
07/05 22:40 14.3 59 7.25 6.4 19 32 1029.9 0 16.7 24.2 35.0 91.4 81.7 279.7
07/05 22:30 14.1 60 7.28 6.5 24 41 1029.7 0 16.8 24.3 35.2 91.9 82.2 281.7
07/05 22:20 14.3 60 7.37 6.6 24 32 1029.7 0 16.9 24.4 35.4 92.6 83.2 285.0
07/05 22:10 14.2 59 7.2 6.3 22 33 1029.7 0 16.6 24.2 34.8 90.9 81.1 277.8
07/05 22:00 14.3 59 7.25 6.4 26 39 1029.6 0 16.7 24.2 35.0 91.3 81.6 279.6
07/05 21:50 14.3 58 7.13 6.2 24 32 1029.8 0 16.4 24.0 34.5 90.1 80.1 274.4
07/05 21:40 14.4 58 7.17 6.3 22 28 1029.6 0 16.5 24.1 34.6 90.4 80.5 275.7
07/05 21:30 14.6 57 7.13 6.2 24 41 1029.5 0 16.4 24.0 34.4 89.8 79.8 273.3
07/05 21:20 14.5 57 7.09 6.1 30 43 1029.6 0 16.3 23.9 34.3 89.5 79.4 271.9
07/05 21:10 14.4 58 7.17 6.3 24 28 1029.5 0 16.5 24.1 34.6 90.4 80.5 275.7
07/05 21:00 14.3 59 7.25 6.4 22 37 1029.3 0 16.7 24.2 35.0 91.3 81.6 279.6
07/05 20:50 14.2 58 7.08 6.1 24 32 1029.4 0 16.3 24.0 34.4 89.7 79.6 272.4
07/05 20:40 14.5 58 7.21 6.3 20 32 1029.3 0 16.6 24.1 34.7 90.7 80.9 277.1
07/05 20:30 14.7 57 7.18 6.3 22 33 1029.2 0 16.5 24.0 34.5 90.1 80.3 275.1
07/05 20:20 14.7 57 7.18 6.3 28 35 1029.4 0 16.5 24.0 34.5 90.1 80.3 275.1
07/05 20:10 14.9 56 7.14 6.2 19 26 1029.3 0 16.4 23.9 34.3 89.5 79.6 272.7
07/05 20:00 15 56 7.18 6.3 22 35 1029.2 0 16.5 23.9 34.4 89.8 80.0 274.0
07/05 19:50 15 57 7.31 6.6 20 28 1029.3 0 16.8 24.1 34.9 91.1 81.6 279.8
07/05 19:40 14.4 59 7.29 6.5 28 33 1029.3 0 16.8 24.2 35.1 91.6 82.0 281.0
07/05 19:30 14.5 58 7.21 6.3 22 39 1029.2 0 16.6 24.1 34.7 90.7 80.9 277.1
07/05 19:20 14.4 60 7.42 6.7 17 22 1029.2 0 17.0 24.4 35.6 92.9 83.7 286.7
07/05 19:10 14.3 59 7.25 6.4 20 30 1029.2 0 16.7 24.2 35.0 91.3 81.6 279.5
07/05 19:00 14.5 59 7.34 6.6 20 32 1029.1 0 16.9 24.3 35.2 92.0 82.5 282.8
07/05 18:50 14.6 59 7.38 6.7 17 19 1029.1 0 16.9 24.3 35.3 92.3 82.9 284.2
07/05 18:40 14.8 59 7.47 6.9 19 26 1029 0 17.1 24.4 35.6 93.0 83.8 287.4
07/05 18:30 14.9 58 7.39 6.7 19 30 1028.8 0 17.0 24.2 35.2 92.0 82.7 283.5
07/05 18:20 15.4 56 7.36 6.7 24 28 1028.8 0 16.9 24.1 34.9 91.1 81.8 280.4
07/05 18:10 15.6 55 7.31 6.6 17 20 1028.8 0 16.8 23.9 34.6 90.4 81.0 277.6
07/05 18:00 16.1 55 7.54 7.1 17 30 1028.6 0 17.2 24.2 35.3 92.1 83.3 285.8
07/05 17:50 16.1 57 7.81 7.6 17 24 1028.6 0 17.8 24.6 36.3 94.9 86.7 297.6
07/05 17:40 16.3 55 7.63 7.3 17 24 1028.7 0 17.4 24.2 35.5 92.8 84.2 289.0
07/05 17:30 16.7 54 7.67 7.4 15 26 1028.5 0 17.5 24.2 35.5 92.7 84.3 289.3
07/05 17:20 17.2 51 7.47 7 17 20 1028.7 0 17.0 23.8 34.5 90.2 81.3 278.9
07/05 17:10 17.9 49 7.48 7 22 26 1028.7 0 17.0 23.6 34.3 89.5 80.7 276.9
07/05 17:00 18.5 46 7.28 6.7 19 33 1028.6 0 16.6 23.1 33.3 86.9 77.7 266.4

Last Refresh: 08-May-2026 11:05:33

Bureau of Meteorology